Terminal Aerodrome Forecast
Issued by NWS

Home | Current Version | Previous Version | Text Only | Print | Product List | Glossary On
Versions: 1 2 3 4 5 6 7 8 9 10 11 12 13 14 15 16 17 18 19
000
FTUS43 KILX 012100 AAA
TAFBMI
TAF AMD
KBMI 012118Z 0121/0218 04008KT 3/4SM -SN BR OVC002
     FM020000 01020G30KT 1SM -SN BLSN OVC004
     FM021000 34020G24KT P6SM OVC017
     FM021500 32010KT P6SM SCT020=

USA.gov is the U.S. government's official web portal to all federal, state and local government web resources and services.